sensor_id;sensor_type;location;lat;lon;timestamp;pressure;altitude;pressure_sealevel;temperature;humidity
6028;BME280;3042;43.194;27.646;2023-06-04T00:02:24;101680.13;;;26.77;100.00
6028;BME280;3042;43.194;27.646;2023-06-04T00:04:53;101684.53;;;26.81;100.00
6028;BME280;3042;43.194;27.646;2023-06-04T00:07:20;101626.41;;;26.47;100.00
6028;BME280;3042;43.194;27.646;2023-06-04T00:09:47;101650.16;;;26.66;100.00
6028;BME280;3042;43.194;27.646;2023-06-04T00:12:15;101678.28;;;26.87;100.00
6028;BME280;3042;43.194;27.646;2023-06-04T00:14:42;101690.59;;;26.94;100.00
6028;BME280;3042;43.194;27.646;2023-06-04T00:17:10;101681.69;;;27.03;100.00
6028;BME280;3042;43.194;27.646;2023-06-04T00:19:38;101672.78;;;27.08;100.00
6028;BME280;3042;43.194;27.646;2023-06-04T00:22:07;101679.88;;;27.08;100.00
6028;BME280;3042;43.194;27.646;2023-06-04T00:24:36;101669.25;;;27.09;100.00
6028;BME280;3042;43.194;27.646;2023-06-04T00:27:04;101682.50;;;27.14;100.00
6028;BME280;3042;43.194;27.646;2023-06-04T00:29:31;101684.28;;;27.12;100.00
6028;BME280;3042;43.194;27.646;2023-06-04T00:31:58;101683.31;;;27.17;100.00
6028;BME280;3042;43.194;27.646;2023-06-04T00:34:26;101689.53;;;27.20;100.00
6028;BME280;3042;43.194;27.646;2023-06-04T00:36:53;101684.22;;;27.16;100.00
6028;BME280;3042;43.194;27.646;2023-06-04T00:39:21;101685.09;;;27.22;100.00
6028;BME280;3042;43.194;27.646;2023-06-04T00:41:48;101661.31;;;27.06;100.00
6028;BME280;3042;43.194;27.646;2023-06-04T00:44:16;101681.56;;;27.16;100.00
6028;BME280;3042;43.194;27.646;2023-06-04T00:46:43;101640.31;;;26.83;100.00
6028;BME280;3042;43.194;27.646;2023-06-04T00:49:13;101689.69;;;26.97;100.00
6028;BME280;3042;43.194;27.646;2023-06-04T00:51:40;101697.66;;;26.97;100.00
6028;BME280;3042;43.194;27.646;2023-06-04T00:54:08;101695.03;;;26.93;100.00
6028;BME280;3042;43.194;27.646;2023-06-04T00:56:37;101692.34;;;27.00;100.00
6028;BME280;3042;43.194;27.646;2023-06-04T00:59:05;101697.53;;;27.10;100.00
6028;BME280;3042;43.194;27.646;2023-06-04T01:01:40;101695.78;;;27.09;100.00
6028;BME280;3042;43.194;27.646;2023-06-04T01:04:15;101671.09;;;27.04;100.00
6028;BME280;3042;43.194;27.646;2023-06-04T01:06:47;101624.44;;;26.77;100.00
6028;BME280;3042;43.194;27.646;2023-06-04T01:09:16;101708.44;;;26.77;100.00
6028;BME280;3042;43.194;27.646;2023-06-04T01:11:46;101701.22;;;26.94;100.00
6028;BME280;3042;43.194;27.646;2023-06-04T01:14:13;101673.09;;;26.73;100.00
6028;BME280;3042;43.194;27.646;2023-06-04T01:16:49;101696.72;;;27.05;100.00
6028;BME280;3042;43.194;27.646;2023-06-04T01:19:29;101707.50;;;26.84;100.00
6028;BME280;3042;43.194;27.646;2023-06-04T01:22:03;101706.75;;;26.63;100.00
6028;BME280;3042;43.194;27.646;2023-06-04T01:24:34;101716.44;;;26.72;100.00
6028;BME280;3042;43.194;27.646;2023-06-04T01:27:05;101639.88;;;26.12;100.00
6028;BME280;3042;43.194;27.646;2023-06-04T01:29:33;101731.56;;;26.56;100.00
6028;BME280;3042;43.194;27.646;2023-06-04T01:32:01;101734.22;;;26.48;100.00
6028;BME280;3042;43.194;27.646;2023-06-04T01:34:29;101739.53;;;26.41;100.00
6028;BME280;3042;43.194;27.646;2023-06-04T01:36:56;101684.03;;;26.22;100.00
6028;BME280;3042;43.194;27.646;2023-06-04T01:39:23;101748.41;;;26.40;100.00
6028;BME280;3042;43.194;27.646;2023-06-04T01:41:50;101745.84;;;26.15;100.00
6028;BME280;3042;43.194;27.646;2023-06-04T01:44:19;101754.72;;;26.08;100.00
6028;BME280;3042;43.194;27.646;2023-06-04T01:46:46;101755.66;;;25.88;100.00
6028;BME280;3042;43.194;27.646;2023-06-04T01:49:13;101757.44;;;25.86;100.00
6028;BME280;3042;43.194;27.646;2023-06-04T01:51:40;101668.41;;;25.36;100.00
6028;BME280;3042;43.194;27.646;2023-06-04T01:54:07;101770.69;;;25.74;100.00
6028;BME280;3042;43.194;27.646;2023-06-04T01:56:35;101765.38;;;25.74;100.00
6028;BME280;3042;43.194;27.646;2023-06-04T01:59:02;101749.53;;;25.46;100.00
6028;BME280;3042;43.194;27.646;2023-06-04T02:01:31;101749.53;;;25.45;100.00
6028;BME280;3042;43.194;27.646;2023-06-04T02:03:58;101770.69;;;25.74;100.00
6028;BME280;3042;43.194;27.646;2023-06-04T02:06:25;101783.94;;;25.65;100.00
6028;BME280;3042;43.194;27.646;2023-06-04T02:08:55;101671.06;;;24.96;100.00
6028;BME280;3042;43.194;27.646;2023-06-04T02:11:22;101785.69;;;25.67;100.00
6028;BME280;3042;43.194;27.646;2023-06-04T02:13:50;101774.19;;;25.82;100.00
6028;BME280;3042;43.194;27.646;2023-06-04T02:16:17;101773.31;;;25.83;100.00
6028;BME280;3042;43.194;27.646;2023-06-04T02:18:46;101795.44;;;25.45;100.00
6028;BME280;3042;43.194;27.646;2023-06-04T02:21:13;101785.72;;;25.43;100.00
6028;BME280;3042;43.194;27.646;2023-06-04T02:23:40;101781.31;;;25.37;100.00
6028;BME280;3042;43.194;27.646;2023-06-04T02:26:08;101792.78;;;25.30;100.00
6028;BME280;3042;43.194;27.646;2023-06-04T02:28:50;101768.94;;;25.21;100.00
6028;BME280;3042;43.194;27.646;2023-06-04T02:31:17;101783.09;;;25.38;100.00
6028;BME280;3042;43.194;27.646;2023-06-04T02:33:45;101806.88;;;25.24;100.00
6028;BME280;3042;43.194;27.646;2023-06-04T02:36:12;101806.88;;;25.26;100.00
6028;BME280;3042;43.194;27.646;2023-06-04T02:38:41;101773.38;;;25.25;100.00
6028;BME280;3042;43.194;27.646;2023-06-04T02:41:08;101731.81;;;24.62;100.00
6028;BME280;3042;43.194;27.646;2023-06-04T02:43:36;101767.97;;;24.70;100.00
6028;BME280;3042;43.194;27.646;2023-06-04T02:46:03;101821.88;;;25.18;100.00
6028;BME280;3042;43.194;27.646;2023-06-04T02:48:31;101773.28;;;24.83;100.00
6028;BME280;3042;43.194;27.646;2023-06-04T02:51:00;101673.59;;;24.26;100.00
6028;BME280;3042;43.194;27.646;2023-06-04T02:53:27;101814.75;;;25.04;100.00
6028;BME280;3042;43.194;27.646;2023-06-04T02:55:54;101814.75;;;25.04;100.00
6028;BME280;3042;43.194;27.646;2023-06-04T02:58:22;101800.69;;;25.21;100.00
6028;BME280;3042;43.194;27.646;2023-06-04T03:00:52;101757.44;;;24.91;100.00
6028;BME280;3042;43.194;27.646;2023-06-04T03:03:19;101816.53;;;25.09;100.00
6028;BME280;3042;43.194;27.646;2023-06-04T03:05:46;101811.28;;;25.30;100.00
6028;BME280;3042;43.194;27.646;2023-06-04T03:08:15;101806.91;;;25.57;100.00
6028;BME280;3042;43.194;27.646;2023-06-04T03:10:42;101804.25;;;25.60;100.00
6028;BME280;3042;43.194;27.646;2023-06-04T03:13:09;101804.25;;;25.51;100.00
6028;BME280;3042;43.194;27.646;2023-06-04T03:15:36;101786.59;;;25.25;100.00
6028;BME280;3042;43.194;27.646;2023-06-04T03:18:04;101807.75;;;25.68;100.00
6028;BME280;3042;43.194;27.646;2023-06-04T03:20:31;101821.00;;;25.51;100.00
6028;BME280;3042;43.194;27.646;2023-06-04T03:23:00;101733.66;;;24.82;100.00
6028;BME280;3042;43.194;27.646;2023-06-04T03:25:29;101842.06;;;25.00;100.00
6028;BME280;3042;43.194;27.646;2023-06-04T03:27:58;101832.44;;;25.18;100.00
6028;BME280;3042;43.194;27.646;2023-06-04T03:30:25;101808.66;;;25.53;100.00
6028;BME280;3042;43.194;27.646;2023-06-04T03:32:52;101799.81;;;25.49;100.00
6028;BME280;3042;43.194;27.646;2023-06-04T03:35:19;101832.47;;;25.58;100.00
6028;BME280;3042;43.194;27.646;2023-06-04T03:37:46;101825.38;;;25.75;100.00
6028;BME280;3042;43.194;27.646;2023-06-04T03:40:13;101829.81;;;25.76;100.00
6028;BME280;3042;43.194;27.646;2023-06-04T03:42:43;101825.38;;;25.81;100.00
6028;BME280;3042;43.194;27.646;2023-06-04T03:45:10;101818.31;;;26.03;100.00
6028;BME280;3042;43.194;27.646;2023-06-04T03:47:38;101831.56;;;25.94;100.00
6028;BME280;3042;43.194;27.646;2023-06-04T03:50:06;101836.00;;;25.90;100.00
6028;BME280;3042;43.194;27.646;2023-06-04T03:52:33;101848.34;;;25.61;100.00
6028;BME280;3042;43.194;27.646;2023-06-04T03:55:00;101843.06;;;25.76;100.00
6028;BME280;3042;43.194;27.646;2023-06-04T03:57:29;101848.38;;;25.64;100.00
6028;BME280;3042;43.194;27.646;2023-06-04T03:59:57;101835.97;;;25.35;100.00
6028;BME280;3042;43.194;27.646;2023-06-04T04:02:25;101871.28;;;25.45;100.00
6028;BME280;3042;43.194;27.646;2023-06-04T04:04:52;101851.00;;;25.58;100.00
6028;BME280;3042;43.194;27.646;2023-06-04T04:07:19;101857.19;;;25.67;100.00
6028;BME280;3042;43.194;27.646;2023-06-04T04:09:48;101844.81;;;25.77;100.00
6028;BME280;3042;43.194;27.646;2023-06-04T04:12:15;101806.84;;;26.01;100.00
6028;BME280;3042;43.194;27.646;2023-06-04T04:14:42;101843.00;;;26.19;100.00
6028;BME280;3042;43.194;27.646;2023-06-04T04:17:11;101824.28;;;26.68;100.00
6028;BME280;3042;43.194;27.646;2023-06-04T04:19:38;101803.13;;;26.61;100.00
6028;BME280;3042;43.194;27.646;2023-06-04T04:22:05;101856.19;;;26.42;100.00
6028;BME280;3042;43.194;27.646;2023-06-04T04:24:34;101774.25;;;25.64;100.00
6028;BME280;3042;43.194;27.646;2023-06-04T04:27:03;101871.31;;;25.96;100.00
6028;BME280;3042;43.194;27.646;2023-06-04T04:29:31;101851.91;;;25.87;100.00
6028;BME280;3042;43.194;27.646;2023-06-04T04:32:00;101794.47;;;26.09;100.00
6028;BME280;3042;43.194;27.646;2023-06-04T04:34:29;101856.81;;;27.04;100.00
6028;BME280;3042;43.194;27.646;2023-06-04T04:36:58;101852.97;;;27.51;100.00
6028;BME280;3042;43.194;27.646;2023-06-04T04:39:25;101844.78;;;27.74;100.00
6028;BME280;3042;43.194;27.646;2023-06-04T04:41:54;101851.41;;;27.26;100.00
6028;BME280;3042;43.194;27.646;2023-06-04T04:44:21;101849.22;;;27.75;100.00
6028;BME280;3042;43.194;27.646;2023-06-04T04:46:48;101837.94;;;27.47;100.00
6028;BME280;3042;43.194;27.646;2023-06-04T04:49:15;101861.78;;;27.56;100.00
6028;BME280;3042;43.194;27.646;2023-06-04T04:51:45;101856.22;;;27.87;100.00
6028;BME280;3042;43.194;27.646;2023-06-04T04:54:12;101851.81;;;27.85;100.00
6028;BME280;3042;43.194;27.646;2023-06-04T04:56:43;101815.72;;;27.57;100.00
6028;BME280;3042;43.194;27.646;2023-06-04T04:59:13;101866.97;;;27.69;100.00
6028;BME280;3042;43.194;27.646;2023-06-04T05:01:41;101779.84;;;27.06;100.00
6028;BME280;3042;43.194;27.646;2023-06-04T05:04:08;101867.88;;;27.68;100.00
6028;BME280;3042;43.194;27.646;2023-06-04T05:06:39;101866.03;;;27.76;100.00
6028;BME280;3042;43.194;27.646;2023-06-04T05:09:15;101862.38;;;27.92;100.00
6028;BME280;3042;43.194;27.646;2023-06-04T05:11:44;101815.59;;;27.73;100.00
6028;BME280;3042;43.194;27.646;2023-06-04T05:14:11;101865.59;;;28.22;100.00
6028;BME280;3042;43.194;27.646;2023-06-04T05:16:38;101850.06;;;28.64;100.00
6028;BME280;3042;43.194;27.646;2023-06-04T05:19:06;101846.91;;;28.99;100.00
6028;BME280;3042;43.194;27.646;2023-06-04T05:21:34;101875.06;;;28.45;100.00
6028;BME280;3042;43.194;27.646;2023-06-04T05:24:02;101885.50;;;27.84;100.00
6028;BME280;3042;43.194;27.646;2023-06-04T05:26:31;101900.75;;;27.54;100.00
6028;BME280;3042;43.194;27.646;2023-06-04T05:28:58;101876.47;;;27.99;100.00
6028;BME280;3042;43.194;27.646;2023-06-04T05:31:27;101816.06;;;27.21;100.00
6028;BME280;3042;43.194;27.646;2023-06-04T05:33:54;101876.13;;;27.31;100.00
6028;BME280;3042;43.194;27.646;2023-06-04T05:36:21;101902.56;;;27.48;100.00
6028;BME280;3042;43.194;27.646;2023-06-04T05:38:48;101923.09;;;27.20;100.00
6028;BME280;3042;43.194;27.646;2023-06-04T05:41:22;101882.22;;;27.44;100.00
6028;BME280;3042;43.194;27.646;2023-06-04T05:43:53;101884.00;;;27.43;100.00
6028;BME280;3042;43.194;27.646;2023-06-04T05:46:20;101885.91;;;28.29;100.00
6028;BME280;3042;43.194;27.646;2023-06-04T05:48:48;101891.88;;;28.51;100.00
6028;BME280;3042;43.194;27.646;2023-06-04T05:51:16;101875.03;;;29.20;100.00
6028;BME280;3042;43.194;27.646;2023-06-04T05:53:43;101876.44;;;29.43;100.00
6028;BME280;3042;43.194;27.646;2023-06-04T05:56:10;101889.75;;;29.43;100.00
6028;BME280;3042;43.194;27.646;2023-06-04T05:58:38;101844.59;;;28.01;100.00
6028;BME280;3042;43.194;27.646;2023-06-04T06:01:06;101914.88;;;28.57;100.00
6028;BME280;3042;43.194;27.646;2023-06-04T06:03:34;101860.03;;;28.45;100.00
6028;BME280;3042;43.194;27.646;2023-06-04T06:06:02;101912.28;;;28.51;100.00
6028;BME280;3042;43.194;27.646;2023-06-04T06:08:31;101911.16;;;28.72;100.00
6028;BME280;3042;43.194;27.646;2023-06-04T06:10:58;101884.41;;;29.46;100.00
6028;BME280;3042;43.194;27.646;2023-06-04T06:13:25;101875.63;;;29.94;100.00
6028;BME280;3042;43.194;27.646;2023-06-04T06:15:55;101865.78;;;30.87;100.00
6028;BME280;3042;43.194;27.646;2023-06-04T06:18:24;101865.22;;;31.12;100.00
6028;BME280;3042;43.194;27.646;2023-06-04T06:20:51;101864.31;;;31.13;100.00
6028;BME280;3042;43.194;27.646;2023-06-04T06:23:18;101847.94;;;31.64;100.00
6028;BME280;3042;43.194;27.646;2023-06-04T06:25:47;101873.56;;;31.73;100.00
6028;BME280;3042;43.194;27.646;2023-06-04T06:28:16;101868.88;;;31.81;100.00
6028;BME280;3042;43.194;27.646;2023-06-04T06:30:44;101841.53;;;30.97;100.00
6028;BME280;3042;43.194;27.646;2023-06-04T06:33:11;101848.38;;;31.47;100.00
6028;BME280;3042;43.194;27.646;2023-06-04T06:35:40;101834.03;;;32.48;100.00
6028;BME280;3042;43.194;27.646;2023-06-04T06:38:12;101824.97;;;32.82;100.00
6028;BME280;3042;43.194;27.646;2023-06-04T06:40:40;101862.69;;;32.76;100.00
6028;BME280;3042;43.194;27.646;2023-06-04T06:43:07;101809.38;;;34.01;100.00
6028;BME280;3042;43.194;27.646;2023-06-04T06:45:36;101818.63;;;34.41;96.85
6028;BME280;3042;43.194;27.646;2023-06-04T06:48:03;101875.75;;;33.15;95.92
6028;BME280;3042;43.194;27.646;2023-06-04T06:50:30;101905.47;;;32.13;100.00
6028;BME280;3042;43.194;27.646;2023-06-04T06:53:00;101925.41;;;31.28;100.00
6028;BME280;3042;43.194;27.646;2023-06-04T06:55:28;101892.28;;;30.97;100.00
6028;BME280;3042;43.194;27.646;2023-06-04T06:57:56;101898.88;;;31.19;100.00
6028;BME280;3042;43.194;27.646;2023-06-04T07:00:23;101911.13;;;31.67;100.00
6028;BME280;3042;43.194;27.646;2023-06-04T07:02:50;101895.72;;;31.76;100.00
6028;BME280;3042;43.194;27.646;2023-06-04T07:05:17;101883.50;;;30.91;100.00
6028;BME280;3042;43.194;27.646;2023-06-04T07:07:45;101920.19;;;31.22;100.00
6028;BME280;3042;43.194;27.646;2023-06-04T07:10:15;101924.44;;;31.31;100.00
6028;BME280;3042;43.194;27.646;2023-06-04T07:12:42;101908.66;;;31.19;97.94
6028;BME280;3042;43.194;27.646;2023-06-04T07:15:09;101931.91;;;30.71;98.22
6028;BME280;3042;43.194;27.646;2023-06-04T07:17:36;101932.09;;;31.07;100.00
6028;BME280;3042;43.194;27.646;2023-06-04T07:20:04;101945.94;;;30.84;100.00
6028;BME280;3042;43.194;27.646;2023-06-04T07:22:33;101890.31;;;30.63;100.00
6028;BME280;3042;43.194;27.646;2023-06-04T07:25:00;101937.97;;;30.81;100.00
6028;BME280;3042;43.194;27.646;2023-06-04T07:27:29;101928.69;;;31.01;100.00
6028;BME280;3042;43.194;27.646;2023-06-04T07:29:56;101930.00;;;30.80;98.77
6028;BME280;3042;43.194;27.646;2023-06-04T07:32:23;101961.13;;;30.34;94.92
6028;BME280;3042;43.194;27.646;2023-06-04T07:34:50;101964.13;;;30.16;96.58
6028;BME280;3042;43.194;27.646;2023-06-04T07:37:17;101958.47;;;29.83;96.93
6028;BME280;3042;43.194;27.646;2023-06-04T07:39:45;101927.28;;;30.36;98.44
6028;BME280;3042;43.194;27.646;2023-06-04T07:42:13;101926.81;;;30.61;96.89
6028;BME280;3042;43.194;27.646;2023-06-04T07:44:41;101950.59;;;30.25;100.00
6028;BME280;3042;43.194;27.646;2023-06-04T07:47:09;101930.38;;;30.61;100.00
6028;BME280;3042;43.194;27.646;2023-06-04T07:49:36;101933.72;;;30.71;100.00
6028;BME280;3042;43.194;27.646;2023-06-04T07:52:04;101953.41;;;30.17;100.00
6028;BME280;3042;43.194;27.646;2023-06-04T07:54:31;101899.25;;;30.14;100.00
6028;BME280;3042;43.194;27.646;2023-06-04T07:56:58;101951.50;;;30.25;100.00
6028;BME280;3042;43.194;27.646;2023-06-04T07:59:26;101935.69;;;30.63;100.00
6028;BME280;3042;43.194;27.646;2023-06-04T08:01:56;101931.88;;;30.75;100.00
6028;BME280;3042;43.194;27.646;2023-06-04T08:04:23;101943.69;;;30.63;100.00
6028;BME280;3042;43.194;27.646;2023-06-04T08:06:51;101933.19;;;30.97;100.00
6028;BME280;3042;43.194;27.646;2023-06-04T08:09:18;101938.09;;;30.75;100.00
6028;BME280;3042;43.194;27.646;2023-06-04T08:11:46;101942.69;;;30.67;100.00
6028;BME280;3042;43.194;27.646;2023-06-04T08:14:14;101933.47;;;29.87;100.00
6028;BME280;3042;43.194;27.646;2023-06-04T08:16:42;101964.81;;;30.25;100.00
6028;BME280;3042;43.194;27.646;2023-06-04T08:19:10;101944.47;;;30.68;100.00
6028;BME280;3042;43.194;27.646;2023-06-04T08:21:38;101925.72;;;31.13;100.00
6028;BME280;3042;43.194;27.646;2023-06-04T08:24:08;101937.47;;;31.06;100.00
6028;BME280;3042;43.194;27.646;2023-06-04T08:26:36;101965.97;;;30.60;99.41
6028;BME280;3042;43.194;27.646;2023-06-04T08:29:03;101876.22;;;30.09;99.36
6028;BME280;3042;43.194;27.646;2023-06-04T08:31:31;101956.97;;;30.66;100.00
6028;BME280;3042;43.194;27.646;2023-06-04T08:33:58;101851.16;;;29.70;98.55
6028;BME280;3042;43.194;27.646;2023-06-04T08:36:28;101949.81;;;30.68;99.73
6028;BME280;3042;43.194;27.646;2023-06-04T08:38:58;101953.31;;;30.70;99.61
6028;BME280;3042;43.194;27.646;2023-06-04T08:41:31;101970.09;;;30.30;100.00
6028;BME280;3042;43.194;27.646;2023-06-04T08:44:01;101992.91;;;29.95;98.32
6028;BME280;3042;43.194;27.646;2023-06-04T08:46:32;101843.25;;;29.07;98.47
6028;BME280;3042;43.194;27.646;2023-06-04T08:49:01;101970.41;;;30.12;99.00
6028;BME280;3042;43.194;27.646;2023-06-04T08:51:33;101985.69;;;30.00;100.00
6028;BME280;3042;43.194;27.646;2023-06-04T08:54:01;101990.09;;;30.01;100.00
6028;BME280;3042;43.194;27.646;2023-06-04T08:56:28;101960.09;;;30.41;100.00
6028;BME280;3042;43.194;27.646;2023-06-04T08:59:01;101950.09;;;30.53;100.00
6028;BME280;3042;43.194;27.646;2023-06-04T09:01:29;101908.22;;;30.09;99.20
6028;BME280;3042;43.194;27.646;2023-06-04T09:03:57;101951.56;;;30.69;100.00
6028;BME280;3042;43.194;27.646;2023-06-04T09:06:25;101941.97;;;31.04;99.08
6028;BME280;3042;43.194;27.646;2023-06-04T09:08:56;101951.50;;;30.72;97.46
6028;BME280;3042;43.194;27.646;2023-06-04T09:11:26;101967.91;;;30.50;100.00
6028;BME280;3042;43.194;27.646;2023-06-04T09:13:58;101950.50;;;30.76;100.00
6028;BME280;3042;43.194;27.646;2023-06-04T09:16:26;101942.38;;;30.82;100.00
6028;BME280;3042;43.194;27.646;2023-06-04T09:19:00;101923.78;;;31.21;99.21
6028;BME280;3042;43.194;27.646;2023-06-04T09:21:28;101953.44;;;30.64;100.00
6028;BME280;3042;43.194;27.646;2023-06-04T09:23:57;101924.34;;;30.50;100.00
6028;BME280;3042;43.194;27.646;2023-06-04T09:26:25;101894.25;;;30.88;99.46
6028;BME280;3042;43.194;27.646;2023-06-04T09:28:52;101942.22;;;30.93;98.53
6028;BME280;3042;43.194;27.646;2023-06-04T09:31:22;101927.25;;;31.23;96.37
6028;BME280;3042;43.194;27.646;2023-06-04T09:33:52;101919.84;;;31.38;96.69
6028;BME280;3042;43.194;27.646;2023-06-04T09:36:19;101932.47;;;31.29;100.00
6028;BME280;3042;43.194;27.646;2023-06-04T09:38:47;101948.31;;;30.98;96.81
6028;BME280;3042;43.194;27.646;2023-06-04T09:41:17;101952.78;;;30.98;96.70
6028;BME280;3042;43.194;27.646;2023-06-04T09:43:47;101792.94;;;30.40;97.08
6028;BME280;3042;43.194;27.646;2023-06-04T09:46:15;101945.50;;;31.04;96.55
6028;BME280;3042;43.194;27.646;2023-06-04T09:48:43;101954.81;;;30.83;94.23
6028;BME280;3042;43.194;27.646;2023-06-04T09:51:13;101954.72;;;30.89;93.24
6028;BME280;3042;43.194;27.646;2023-06-04T09:53:41;101941.84;;;31.10;93.18
6028;BME280;3042;43.194;27.646;2023-06-04T09:56:08;101797.38;;;29.96;95.02
6028;BME280;3042;43.194;27.646;2023-06-04T09:58:38;101955.84;;;30.78;94.69
6028;BME280;3042;43.194;27.646;2023-06-04T10:01:06;101971.09;;;30.71;94.48
6028;BME280;3042;43.194;27.646;2023-06-04T10:03:34;101822.09;;;30.49;94.38
6028;BME280;3042;43.194;27.646;2023-06-04T10:06:03;101903.97;;;31.67;93.05
6028;BME280;3042;43.194;27.646;2023-06-04T10:08:31;101791.97;;;30.86;94.13
6028;BME280;3042;43.194;27.646;2023-06-04T10:11:01;101921.47;;;31.45;97.72
6028;BME280;3042;43.194;27.646;2023-06-04T10:13:30;101940.00;;;31.12;93.87
6028;BME280;3042;43.194;27.646;2023-06-04T10:16:00;101925.44;;;31.25;91.89
6028;BME280;3042;43.194;27.646;2023-06-04T10:18:28;101903.44;;;31.53;90.50
6028;BME280;3042;43.194;27.646;2023-06-04T10:20:56;101904.91;;;31.66;91.45
6028;BME280;3042;43.194;27.646;2023-06-04T10:23:23;101910.28;;;31.65;91.52
6028;BME280;3042;43.194;27.646;2023-06-04T10:25:51;101893.78;;;31.83;91.74
6028;BME280;3042;43.194;27.646;2023-06-04T10:28:20;101878.06;;;31.33;89.16
6028;BME280;3042;43.194;27.646;2023-06-04T10:30:47;101920.03;;;31.28;89.06
6028;BME280;3042;43.194;27.646;2023-06-04T10:33:18;101923.91;;;31.15;88.70
6028;BME280;3042;43.194;27.646;2023-06-04T10:35:50;101932.69;;;31.20;88.71
6028;BME280;3042;43.194;27.646;2023-06-04T10:38:18;101943.94;;;30.96;87.83
6028;BME280;3042;43.194;27.646;2023-06-04T10:40:47;101849.03;;;30.37;86.89
6028;BME280;3042;43.194;27.646;2023-06-04T10:43:15;101957.31;;;30.47;89.93
6028;BME280;3042;43.194;27.646;2023-06-04T10:45:43;101940.34;;;30.97;92.96
6028;BME280;3042;43.194;27.646;2023-06-04T10:48:11;101938.53;;;30.97;88.25
6028;BME280;3042;43.194;27.646;2023-06-04T10:50:49;101865.44;;;31.03;90.05
6028;BME280;3042;43.194;27.646;2023-06-04T10:53:17;101821.41;;;30.80;92.03
6028;BME280;3042;43.194;27.646;2023-06-04T10:55:46;101918.13;;;31.33;90.15
6028;BME280;3042;43.194;27.646;2023-06-04T10:58:14;101792.50;;;31.01;89.64
6028;BME280;3042;43.194;27.646;2023-06-04T11:00:42;101888.22;;;31.91;89.79
6028;BME280;3042;43.194;27.646;2023-06-04T11:03:12;101882.59;;;32.03;89.23
6028;BME280;3042;43.194;27.646;2023-06-04T11:05:40;101883.09;;;32.17;88.72
6028;BME280;3042;43.194;27.646;2023-06-04T11:08:10;101874.44;;;32.39;90.43
6028;BME280;3042;43.194;27.646;2023-06-04T11:10:39;101893.03;;;32.12;89.83
6028;BME280;3042;43.194;27.646;2023-06-04T11:13:07;101892.09;;;32.13;89.85
6028;BME280;3042;43.194;27.646;2023-06-04T11:15:38;101777.00;;;30.76;91.83
6028;BME280;3042;43.194;27.646;2023-06-04T11:18:05;101931.03;;;31.53;95.68
6028;BME280;3042;43.194;27.646;2023-06-04T11:20:35;101935.28;;;31.62;94.67
6028;BME280;3042;43.194;27.646;2023-06-04T11:23:02;101922.78;;;31.64;92.24
6028;BME280;3042;43.194;27.646;2023-06-04T11:25:32;101923.44;;;31.72;92.19
6028;BME280;3042;43.194;27.646;2023-06-04T11:28:00;101925.34;;;31.67;90.13
6028;BME280;3042;43.194;27.646;2023-06-04T11:30:28;101847.22;;;31.20;88.80
6028;BME280;3042;43.194;27.646;2023-06-04T11:33:02;101905.56;;;32.10;88.75
6028;BME280;3042;43.194;27.646;2023-06-04T11:35:30;101881.03;;;32.58;87.78
6028;BME280;3042;43.194;27.646;2023-06-04T11:37:58;101887.50;;;32.81;88.74
6028;BME280;3042;43.194;27.646;2023-06-04T11:40:26;101896.72;;;32.71;86.61
6028;BME280;3042;43.194;27.646;2023-06-04T11:42:55;101891.94;;;32.20;88.94
6028;BME280;3042;43.194;27.646;2023-06-04T11:45:23;101901.81;;;32.50;90.14
6028;BME280;3042;43.194;27.646;2023-06-04T11:47:53;101902.53;;;32.57;90.04
6028;BME280;3042;43.194;27.646;2023-06-04T11:50:21;101885.38;;;32.92;87.08
6028;BME280;3042;43.194;27.646;2023-06-04T11:52:48;101879.75;;;33.01;88.11
6028;BME280;3042;43.194;27.646;2023-06-04T11:55:16;101889.84;;;32.92;86.96
6028;BME280;3042;43.194;27.646;2023-06-04T11:57:46;101898.84;;;32.89;87.36
6028;BME280;3042;43.194;27.646;2023-06-04T12:00:16;101756.16;;;31.29;90.74
6028;BME280;3042;43.194;27.646;2023-06-04T12:02:52;101905.97;;;32.61;91.57
6028;BME280;3042;43.194;27.646;2023-06-04T12:05:21;101901.31;;;32.67;91.93
6028;BME280;3042;43.194;27.646;2023-06-04T12:07:49;101918.84;;;32.15;88.36
6028;BME280;3042;43.194;27.646;2023-06-04T12:10:17;101927.31;;;31.61;90.06
6028;BME280;3042;43.194;27.646;2023-06-04T12:12:45;101878.91;;;31.73;88.08
6028;BME280;3042;43.194;27.646;2023-06-04T12:15:20;101938.69;;;31.69;87.78
6028;BME280;3042;43.194;27.646;2023-06-04T12:17:50;101938.94;;;31.58;88.16
6028;BME280;3042;43.194;27.646;2023-06-04T12:20:18;101906.25;;;31.08;88.99
6028;BME280;3042;43.194;27.646;2023-06-04T12:22:46;101946.75;;;31.28;88.47
6028;BME280;3042;43.194;27.646;2023-06-04T12:25:24;101944.69;;;31.40;90.14
6028;BME280;3042;43.194;27.646;2023-06-04T12:27:52;101765.53;;;29.90;88.75
6028;BME280;3042;43.194;27.646;2023-06-04T12:30:21;101956.09;;;31.09;90.18
6028;BME280;3042;43.194;27.646;2023-06-04T12:32:49;101935.81;;;31.41;89.74
6028;BME280;3042;43.194;27.646;2023-06-04T12:35:16;101942.78;;;31.48;90.15
6028;BME280;3042;43.194;27.646;2023-06-04T12:37:43;101943.13;;;31.31;89.78
6028;BME280;3042;43.194;27.646;2023-06-04T12:40:11;101953.00;;;31.27;90.78
6028;BME280;3042;43.194;27.646;2023-06-04T12:42:39;101935.75;;;31.02;90.69
6028;BME280;3042;43.194;27.646;2023-06-04T12:45:07;101945.19;;;31.18;90.08
6028;BME280;3042;43.194;27.646;2023-06-04T12:47:37;101941.47;;;31.25;90.08
6028;BME280;3042;43.194;27.646;2023-06-04T12:50:05;101901.00;;;31.05;90.40
6028;BME280;3042;43.194;27.646;2023-06-04T12:52:32;101835.81;;;30.73;90.27
6028;BME280;3042;43.194;27.646;2023-06-04T12:54:59;101928.31;;;31.57;93.11
6028;BME280;3042;43.194;27.646;2023-06-04T12:57:28;101917.19;;;31.73;94.71
6028;BME280;3042;43.194;27.646;2023-06-04T12:59:56;101919.19;;;31.26;92.83